Terminal Aerodrome Forecast
Issued by NWS

Home | Current Version | Previous Version | Text Only | Print | Product List | Glossary On
Versions: 1 2 3 4 5 6 7 8 9 10 11 12 13 14 15 16 17 18 19 20 21 22 23 24 25 26
000
FTUS45 KREV 241727
TAFRNO
TAF
KRNO 241727Z 2418/2518 VRB04KT P6SM SKC
     FM242100 06008KT P6SM FEW110
     FM242300 36007KT P6SM SCT110 SCT200
     FM250400 VRB04KT P6SM FEW110 SCT200
     FM251100 VRB03KT P6SM SCT100 BKN200=

USA.gov is the U.S. government's official web portal to all federal, state and local government web resources and services.